This is the latest recevied weather packets stored in our database for station/object KE9DBJ. If no packets are shown the sender has not sent any weather packets the latest 10 day(s).
| Time | Temp. | Humidity | Pressure | Rain* | Wind** | Luminosity | Snow |
|---|---|---|---|---|---|---|---|
| 1777623936 | 5° C | 99% | 1013.2 hPa | 0 mm | - | - | - |
| 1777622746 | 5° C | 99% | 1013.5 hPa | 0 mm | - | - | - |
| 1777621518 | 5° C | 99% | 1013.6 hPa | 0 mm | - | - | - |
| 1777618523 | 3.89° C | 99% | 1014 hPa | 0 mm | - | - | - |
| 1777614342 | 3.89° C | 99% | 1014.9 hPa | 0 mm | - | - | - |
| 1777613132 | 3.89° C | 99% | 1014.8 hPa | 0 mm | - | - | - |
| 1777607126 | 5° C | 99% | 1015.3 hPa | 0 mm | - | - | - |
| 1777605323 | 5.56° C | 98% | 1015.7 hPa | 0 mm | - | - | - |
| 1777602349 | 6.11° C | 95% | 1015.6 hPa | 0 mm | - | - | - |
| 1777601161 | 6.67° C | 90% | 1015.5 hPa | 0 mm | - | - | - |
| 1777596919 | 9.44° C | 76% | 1015.2 hPa | 0 mm | - | - | - |
| 1777596338 | 10° C | 71% | 1015 hPa | 0 mm | - | - | - |
| 1777593925 | 12.78° C | 48% | 1015 hPa | 0 mm | - | - | - |
| 1777589128 | 15° C | 38% | 1015 hPa | 0 mm | - | - | - |
| 1777578921 | 17.22° C | 31% | 1016 hPa | 0 mm | - | - | - |
| 1777577730 | 16.67° C | 34% | 1016 hPa | 0 mm | - | - | - |
| 1777574123 | 16.67° C | 35% | 1016.3 hPa | 0 mm | - | - | - |
| 1777569921 | 16.11° C | 42% | 1016.6 hPa | 0 mm | - | - | - |
| 1777560963 | 12.22° C | 55% | 1017.2 hPa | 0 mm | - | - | - |
| 1777559159 | 11.11° C | 60% | 1017.3 hPa | 0 mm | - | - | - |
| 1777556125 | 8.89° C | 68% | 1017.2 hPa | 0 mm | - | - | - |
| 1777555530 | 8.89° C | 70% | 1017.1 hPa | 0 mm | - | - | - |
| 1777553132 | 7.78° C | 76% | 1016.3 hPa | 0 mm | - | - | - |
| 1777543539 | 5° C | 88% | 1014.9 hPa | 0 mm | - | - | - |
| 1777539317 | 5.56° C | 87% | 1014.7 hPa | 0 mm | - | - | - |
* Rain latest hour (hover to see other rain measurements)
** Current wind speed in m/s (hover to see current wind gust speed)